sensor_id;sensor_type;location;lat;lon;timestamp;P1;durP1;ratioP1;P2;durP2;ratioP2
11064;SDS011;5585;52.530;7.320;2022-12-08T00:01:05;4.77;;;2.37;;
11064;SDS011;5585;52.530;7.320;2022-12-08T00:03:34;4.70;;;2.90;;
11064;SDS011;5585;52.530;7.320;2022-12-08T00:06:00;6.27;;;2.57;;
11064;SDS011;5585;52.530;7.320;2022-12-08T00:08:45;3.30;;;2.50;;
11064;SDS011;5585;52.530;7.320;2022-12-08T00:11:29;4.83;;;2.13;;
11064;SDS011;5585;52.530;7.320;2022-12-08T00:13:55;4.43;;;2.37;;
11064;SDS011;5585;52.530;7.320;2022-12-08T00:16:23;6.67;;;2.23;;
11064;SDS011;5585;52.530;7.320;2022-12-08T00:18:50;3.23;;;2.00;;
11064;SDS011;5585;52.530;7.320;2022-12-08T00:21:16;3.53;;;1.70;;
11064;SDS011;5585;52.530;7.320;2022-12-08T00:23:43;4.53;;;1.80;;
11064;SDS011;5585;52.530;7.320;2022-12-08T00:26:09;2.60;;;1.97;;
11064;SDS011;5585;52.530;7.320;2022-12-08T00:28:36;3.33;;;2.17;;
11064;SDS011;5585;52.530;7.320;2022-12-08T00:31:06;2.60;;;2.00;;
11064;SDS011;5585;52.530;7.320;2022-12-08T00:33:34;2.53;;;1.70;;
11064;SDS011;5585;52.530;7.320;2022-12-08T00:36:03;2.70;;;1.90;;
11064;SDS011;5585;52.530;7.320;2022-12-08T00:38:30;2.67;;;1.97;;
11064;SDS011;5585;52.530;7.320;2022-12-08T00:40:57;3.17;;;2.00;;
11064;SDS011;5585;52.530;7.320;2022-12-08T00:43:23;2.63;;;1.90;;
11064;SDS011;5585;52.530;7.320;2022-12-08T00:45:50;2.23;;;1.60;;
11064;SDS011;5585;52.530;7.320;2022-12-08T00:48:17;2.80;;;2.20;;
11064;SDS011;5585;52.530;7.320;2022-12-08T00:50:45;2.37;;;1.73;;
11064;SDS011;5585;52.530;7.320;2022-12-08T00:53:11;4.37;;;1.93;;
11064;SDS011;5585;52.530;7.320;2022-12-08T00:55:38;3.47;;;2.07;;
11064;SDS011;5585;52.530;7.320;2022-12-08T00:58:04;3.60;;;2.43;;
11064;SDS011;5585;52.530;7.320;2022-12-08T01:00:31;2.73;;;2.10;;
11064;SDS011;5585;52.530;7.320;2022-12-08T01:02:58;2.80;;;1.93;;
11064;SDS011;5585;52.530;7.320;2022-12-08T01:05:24;4.17;;;2.20;;
11064;SDS011;5585;52.530;7.320;2022-12-08T01:07:52;4.67;;;2.33;;
11064;SDS011;5585;52.530;7.320;2022-12-08T01:10:18;2.47;;;2.20;;
11064;SDS011;5585;52.530;7.320;2022-12-08T01:12:45;4.93;;;2.53;;
11064;SDS011;5585;52.530;7.320;2022-12-08T01:15:11;3.33;;;2.30;;
11064;SDS011;5585;52.530;7.320;2022-12-08T01:17:38;4.00;;;2.97;;
11064;SDS011;5585;52.530;7.320;2022-12-08T01:20:05;5.73;;;3.10;;
11064;SDS011;5585;52.530;7.320;2022-12-08T01:22:32;4.63;;;3.07;;
11064;SDS011;5585;52.530;7.320;2022-12-08T01:25:00;5.47;;;3.03;;
11064;SDS011;5585;52.530;7.320;2022-12-08T01:27:27;6.07;;;3.60;;
11064;SDS011;5585;52.530;7.320;2022-12-08T01:29:53;4.33;;;3.23;;
11064;SDS011;5585;52.530;7.320;2022-12-08T01:32:20;5.63;;;3.30;;
11064;SDS011;5585;52.530;7.320;2022-12-08T01:34:46;3.40;;;3.10;;
11064;SDS011;5585;52.530;7.320;2022-12-08T01:37:13;6.37;;;3.80;;
11064;SDS011;5585;52.530;7.320;2022-12-08T01:39:40;5.67;;;3.57;;
11064;SDS011;5585;52.530;7.320;2022-12-08T01:42:09;4.67;;;3.60;;
11064;SDS011;5585;52.530;7.320;2022-12-08T01:44:51;4.20;;;3.80;;
11064;SDS011;5585;52.530;7.320;2022-12-08T01:47:18;4.67;;;3.70;;
11064;SDS011;5585;52.530;7.320;2022-12-08T01:49:45;6.40;;;3.30;;
11064;SDS011;5585;52.530;7.320;2022-12-08T01:52:13;6.37;;;4.37;;
11064;SDS011;5585;52.530;7.320;2022-12-08T01:54:42;7.13;;;4.80;;
11064;SDS011;5585;52.530;7.320;2022-12-08T01:57:11;4.93;;;4.13;;
11064;SDS011;5585;52.530;7.320;2022-12-08T01:59:40;4.70;;;3.80;;
11064;SDS011;5585;52.530;7.320;2022-12-08T02:02:08;5.17;;;3.90;;
11064;SDS011;5585;52.530;7.320;2022-12-08T02:04:35;5.37;;;4.00;;
11064;SDS011;5585;52.530;7.320;2022-12-08T02:07:02;4.67;;;4.00;;
11064;SDS011;5585;52.530;7.320;2022-12-08T02:09:29;4.63;;;4.17;;
11064;SDS011;5585;52.530;7.320;2022-12-08T02:11:56;5.53;;;4.30;;
11064;SDS011;5585;52.530;7.320;2022-12-08T02:14:25;5.23;;;4.33;;
11064;SDS011;5585;52.530;7.320;2022-12-08T02:16:54;6.73;;;3.73;;
11064;SDS011;5585;52.530;7.320;2022-12-08T02:19:30;6.57;;;4.50;;
11064;SDS011;5585;52.530;7.320;2022-12-08T02:22:02;6.57;;;4.37;;
11064;SDS011;5585;52.530;7.320;2022-12-08T02:24:31;5.63;;;4.07;;
11064;SDS011;5585;52.530;7.320;2022-12-08T02:27:10;6.00;;;4.43;;
11064;SDS011;5585;52.530;7.320;2022-12-08T02:30:03;5.20;;;4.07;;
11064;SDS011;5585;52.530;7.320;2022-12-08T02:32:51;5.37;;;3.67;;
11064;SDS011;5585;52.530;7.320;2022-12-08T02:35:23;5.83;;;4.40;;
11064;SDS011;5585;52.530;7.320;2022-12-08T02:37:55;5.93;;;4.50;;
11064;SDS011;5585;52.530;7.320;2022-12-08T02:40:23;5.00;;;4.00;;
11064;SDS011;5585;52.530;7.320;2022-12-08T02:42:54;6.27;;;4.37;;
11064;SDS011;5585;52.530;7.320;2022-12-08T02:45:22;5.70;;;4.23;;
11064;SDS011;5585;52.530;7.320;2022-12-08T02:47:50;5.70;;;4.40;;
11064;SDS011;5585;52.530;7.320;2022-12-08T02:50:17;6.27;;;4.70;;
11064;SDS011;5585;52.530;7.320;2022-12-08T02:52:45;6.50;;;4.23;;
11064;SDS011;5585;52.530;7.320;2022-12-08T02:55:16;5.83;;;4.17;;
11064;SDS011;5585;52.530;7.320;2022-12-08T02:57:47;7.13;;;4.33;;
11064;SDS011;5585;52.530;7.320;2022-12-08T03:00:19;5.50;;;4.23;;
11064;SDS011;5585;52.530;7.320;2022-12-08T03:02:48;5.37;;;4.23;;
11064;SDS011;5585;52.530;7.320;2022-12-08T03:05:29;4.50;;;4.03;;
11064;SDS011;5585;52.530;7.320;2022-12-08T03:08:00;5.60;;;4.43;;
11064;SDS011;5585;52.530;7.320;2022-12-08T03:10:31;6.03;;;4.40;;
11064;SDS011;5585;52.530;7.320;2022-12-08T03:12:59;6.60;;;4.37;;
11064;SDS011;5585;52.530;7.320;2022-12-08T03:15:27;5.73;;;4.77;;
11064;SDS011;5585;52.530;7.320;2022-12-08T03:17:56;5.23;;;4.60;;
11064;SDS011;5585;52.530;7.320;2022-12-08T03:20:24;5.83;;;4.40;;
11064;SDS011;5585;52.530;7.320;2022-12-08T03:22:52;5.60;;;4.30;;
11064;SDS011;5585;52.530;7.320;2022-12-08T03:25:23;4.97;;;4.10;;
11064;SDS011;5585;52.530;7.320;2022-12-08T03:27:50;5.53;;;4.20;;
11064;SDS011;5585;52.530;7.320;2022-12-08T03:30:17;6.73;;;4.33;;
11064;SDS011;5585;52.530;7.320;2022-12-08T03:32:46;6.50;;;4.67;;
11064;SDS011;5585;52.530;7.320;2022-12-08T03:35:16;5.40;;;4.50;;
11064;SDS011;5585;52.530;7.320;2022-12-08T03:37:44;6.90;;;4.70;;
11064;SDS011;5585;52.530;7.320;2022-12-08T03:40:13;5.43;;;4.87;;
11064;SDS011;5585;52.530;7.320;2022-12-08T03:42:41;7.43;;;4.80;;
11064;SDS011;5585;52.530;7.320;2022-12-08T03:45:07;6.30;;;5.20;;
11064;SDS011;5585;52.530;7.320;2022-12-08T03:47:34;7.23;;;5.20;;
11064;SDS011;5585;52.530;7.320;2022-12-08T03:50:00;6.67;;;5.53;;
11064;SDS011;5585;52.530;7.320;2022-12-08T03:52:27;6.33;;;5.27;;
11064;SDS011;5585;52.530;7.320;2022-12-08T03:54:53;6.80;;;5.97;;
11064;SDS011;5585;52.530;7.320;2022-12-08T03:57:20;8.10;;;6.20;;
11064;SDS011;5585;52.530;7.320;2022-12-08T03:59:48;8.30;;;6.90;;
11064;SDS011;5585;52.530;7.320;2022-12-08T04:02:14;7.43;;;6.43;;
11064;SDS011;5585;52.530;7.320;2022-12-08T04:04:41;7.83;;;6.73;;
11064;SDS011;5585;52.530;7.320;2022-12-08T04:07:08;8.97;;;6.60;;
11064;SDS011;5585;52.530;7.320;2022-12-08T04:09:34;7.90;;;6.07;;
11064;SDS011;5585;52.530;7.320;2022-12-08T04:12:01;7.20;;;6.50;;
11064;SDS011;5585;52.530;7.320;2022-12-08T04:14:27;6.47;;;5.60;;
11064;SDS011;5585;52.530;7.320;2022-12-08T04:16:55;7.50;;;6.20;;
11064;SDS011;5585;52.530;7.320;2022-12-08T04:19:22;7.73;;;5.83;;
11064;SDS011;5585;52.530;7.320;2022-12-08T04:21:48;7.00;;;5.83;;
11064;SDS011;5585;52.530;7.320;2022-12-08T04:24:15;7.33;;;5.90;;
11064;SDS011;5585;52.530;7.320;2022-12-08T04:26:41;7.17;;;5.90;;
11064;SDS011;5585;52.530;7.320;2022-12-08T04:29:08;8.40;;;6.00;;
11064;SDS011;5585;52.530;7.320;2022-12-08T04:31:34;6.33;;;5.70;;
11064;SDS011;5585;52.530;7.320;2022-12-08T04:34:02;8.17;;;6.00;;
11064;SDS011;5585;52.530;7.320;2022-12-08T04:36:29;7.00;;;6.30;;
11064;SDS011;5585;52.530;7.320;2022-12-08T04:38:55;7.03;;;6.33;;
11064;SDS011;5585;52.530;7.320;2022-12-08T04:41:22;6.63;;;5.97;;
11064;SDS011;5585;52.530;7.320;2022-12-08T04:43:48;6.83;;;6.00;;
11064;SDS011;5585;52.530;7.320;2022-12-08T04:46:15;8.53;;;6.70;;
11064;SDS011;5585;52.530;7.320;2022-12-08T04:48:41;7.47;;;6.43;;
11064;SDS011;5585;52.530;7.320;2022-12-08T04:51:12;6.47;;;5.87;;
11064;SDS011;5585;52.530;7.320;2022-12-08T04:53:39;7.57;;;6.73;;
11064;SDS011;5585;52.530;7.320;2022-12-08T04:56:09;6.80;;;6.20;;
11064;SDS011;5585;52.530;7.320;2022-12-08T04:58:36;7.33;;;6.47;;
11064;SDS011;5585;52.530;7.320;2022-12-08T05:01:03;8.43;;;6.93;;
11064;SDS011;5585;52.530;7.320;2022-12-08T05:03:30;8.43;;;7.20;;
11064;SDS011;5585;52.530;7.320;2022-12-08T05:05:57;8.47;;;7.57;;
11064;SDS011;5585;52.530;7.320;2022-12-08T05:08:26;9.57;;;7.37;;
11064;SDS011;5585;52.530;7.320;2022-12-08T05:10:52;8.10;;;7.30;;
11064;SDS011;5585;52.530;7.320;2022-12-08T05:13:19;8.73;;;6.97;;
11064;SDS011;5585;52.530;7.320;2022-12-08T05:15:45;7.77;;;7.00;;
11064;SDS011;5585;52.530;7.320;2022-12-08T05:18:12;8.10;;;7.20;;
11064;SDS011;5585;52.530;7.320;2022-12-08T05:20:39;7.67;;;6.93;;
11064;SDS011;5585;52.530;7.320;2022-12-08T05:23:06;7.50;;;6.80;;
11064;SDS011;5585;52.530;7.320;2022-12-08T05:25:34;9.70;;;7.37;;
11064;SDS011;5585;52.530;7.320;2022-12-08T05:28:00;7.77;;;6.83;;
11064;SDS011;5585;52.530;7.320;2022-12-08T05:30:27;7.50;;;6.80;;
11064;SDS011;5585;52.530;7.320;2022-12-08T05:32:54;7.10;;;6.33;;
11064;SDS011;5585;52.530;7.320;2022-12-08T05:35:21;7.37;;;6.67;;
11064;SDS011;5585;52.530;7.320;2022-12-08T05:37:47;6.83;;;6.13;;
11064;SDS011;5585;52.530;7.320;2022-12-08T05:40:14;6.80;;;6.20;;
11064;SDS011;5585;52.530;7.320;2022-12-08T05:42:42;5.93;;;5.13;;
11064;SDS011;5585;52.530;7.320;2022-12-08T05:45:09;6.50;;;5.90;;
11064;SDS011;5585;52.530;7.320;2022-12-08T05:47:35;5.57;;;5.07;;
11064;SDS011;5585;52.530;7.320;2022-12-08T05:50:02;5.80;;;5.23;;
11064;SDS011;5585;52.530;7.320;2022-12-08T05:52:28;6.00;;;5.40;;
11064;SDS011;5585;52.530;7.320;2022-12-08T05:54:55;5.53;;;5.03;;
11064;SDS011;5585;52.530;7.320;2022-12-08T05:57:22;5.27;;;4.60;;
11064;SDS011;5585;52.530;7.320;2022-12-08T05:59:49;6.93;;;4.80;;
11064;SDS011;5585;52.530;7.320;2022-12-08T06:02:16;5.50;;;5.00;;
11064;SDS011;5585;52.530;7.320;2022-12-08T06:04:43;5.80;;;5.30;;
11064;SDS011;5585;52.530;7.320;2022-12-08T06:07:09;5.50;;;5.00;;
11064;SDS011;5585;52.530;7.320;2022-12-08T06:09:36;5.33;;;4.80;;
11064;SDS011;5585;52.530;7.320;2022-12-08T06:12:02;5.20;;;4.77;;
11064;SDS011;5585;52.530;7.320;2022-12-08T06:14:29;4.87;;;4.47;;
11064;SDS011;5585;52.530;7.320;2022-12-08T06:16:57;6.00;;;5.30;;
11064;SDS011;5585;52.530;7.320;2022-12-08T06:19:23;5.67;;;5.17;;
11064;SDS011;5585;52.530;7.320;2022-12-08T06:21:50;5.37;;;4.47;;
11064;SDS011;5585;52.530;7.320;2022-12-08T06:24:16;5.90;;;5.40;;
11064;SDS011;5585;52.530;7.320;2022-12-08T06:26:43;4.93;;;4.53;;
11064;SDS011;5585;52.530;7.320;2022-12-08T06:29:11;5.70;;;5.10;;
11064;SDS011;5585;52.530;7.320;2022-12-08T06:31:37;5.20;;;4.77;;
11064;SDS011;5585;52.530;7.320;2022-12-08T06:34:05;5.30;;;4.80;;
11064;SDS011;5585;52.530;7.320;2022-12-08T06:36:32;5.10;;;4.60;;
11064;SDS011;5585;52.530;7.320;2022-12-08T06:38:58;5.77;;;5.17;;
11064;SDS011;5585;52.530;7.320;2022-12-08T06:41:25;5.40;;;4.90;;
11064;SDS011;5585;52.530;7.320;2022-12-08T06:43:54;6.00;;;5.10;;
11064;SDS011;5585;52.530;7.320;2022-12-08T06:46:21;5.33;;;4.83;;
11064;SDS011;5585;52.530;7.320;2022-12-08T06:48:47;6.77;;;5.90;;
11064;SDS011;5585;52.530;7.320;2022-12-08T06:51:17;5.90;;;5.10;;
11064;SDS011;5585;52.530;7.320;2022-12-08T06:53:43;5.57;;;4.97;;
11064;SDS011;5585;52.530;7.320;2022-12-08T06:56:10;5.60;;;5.00;;
11064;SDS011;5585;52.530;7.320;2022-12-08T06:58:37;5.37;;;4.73;;
11064;SDS011;5585;52.530;7.320;2022-12-08T07:01:04;5.93;;;5.10;;
11064;SDS011;5585;52.530;7.320;2022-12-08T07:03:31;6.03;;;4.73;;
11064;SDS011;5585;52.530;7.320;2022-12-08T07:05:59;5.83;;;5.20;;
11064;SDS011;5585;52.530;7.320;2022-12-08T07:08:27;4.90;;;4.50;;
11064;SDS011;5585;52.530;7.320;2022-12-08T07:10:53;4.60;;;4.20;;
11064;SDS011;5585;52.530;7.320;2022-12-08T07:13:20;5.40;;;4.90;;
11064;SDS011;5585;52.530;7.320;2022-12-08T07:15:48;4.87;;;4.37;;
11064;SDS011;5585;52.530;7.320;2022-12-08T07:18:34;5.50;;;4.67;;
11064;SDS011;5585;52.530;7.320;2022-12-08T07:21:04;5.73;;;5.10;;
11064;SDS011;5585;52.530;7.320;2022-12-08T07:23:32;5.30;;;4.80;;
11064;SDS011;5585;52.530;7.320;2022-12-08T07:25:59;6.20;;;4.40;;
11064;SDS011;5585;52.530;7.320;2022-12-08T07:28:25;5.80;;;4.80;;
11064;SDS011;5585;52.530;7.320;2022-12-08T07:30:52;5.33;;;4.83;;
11064;SDS011;5585;52.530;7.320;2022-12-08T07:33:18;5.40;;;4.70;;
11064;SDS011;5585;52.530;7.320;2022-12-08T07:35:52;4.77;;;4.37;;
11064;SDS011;5585;52.530;7.320;2022-12-08T07:38:18;4.60;;;4.20;;
11064;SDS011;5585;52.530;7.320;2022-12-08T07:40:46;4.93;;;4.43;;
11064;SDS011;5585;52.530;7.320;2022-12-08T07:43:13;4.67;;;4.10;;
11064;SDS011;5585;52.530;7.320;2022-12-08T07:45:39;5.00;;;4.53;;
11064;SDS011;5585;52.530;7.320;2022-12-08T07:48:06;4.93;;;4.33;;
11064;SDS011;5585;52.530;7.320;2022-12-08T07:50:33;6.50;;;4.30;;
11064;SDS011;5585;52.530;7.320;2022-12-08T07:52:59;4.40;;;3.97;;
11064;SDS011;5585;52.530;7.320;2022-12-08T07:55:26;5.50;;;4.40;;
11064;SDS011;5585;52.530;7.320;2022-12-08T07:57:54;5.73;;;4.43;;
11064;SDS011;5585;52.530;7.320;2022-12-08T08:00:20;4.30;;;3.90;;
11064;SDS011;5585;52.530;7.320;2022-12-08T08:02:47;4.90;;;4.27;;
11064;SDS011;5585;52.530;7.320;2022-12-08T08:05:13;5.07;;;4.57;;
11064;SDS011;5585;52.530;7.320;2022-12-08T08:07:40;4.67;;;4.27;;
11064;SDS011;5585;52.530;7.320;2022-12-08T08:10:08;5.27;;;4.00;;
11064;SDS011;5585;52.530;7.320;2022-12-08T08:12:35;4.33;;;3.93;;
11064;SDS011;5585;52.530;7.320;2022-12-08T08:15:03;4.87;;;4.30;;
11064;SDS011;5585;52.530;7.320;2022-12-08T08:17:31;6.27;;;4.20;;
11064;SDS011;5585;52.530;7.320;2022-12-08T08:19:58;4.37;;;3.40;;
11064;SDS011;5585;52.530;7.320;2022-12-08T08:22:25;4.20;;;3.50;;
11064;SDS011;5585;52.530;7.320;2022-12-08T08:24:51;4.03;;;3.60;;
11064;SDS011;5585;52.530;7.320;2022-12-08T08:27:18;3.40;;;2.90;;
11064;SDS011;5585;52.530;7.320;2022-12-08T08:29:44;3.87;;;3.13;;
11064;SDS011;5585;52.530;7.320;2022-12-08T08:32:12;4.20;;;2.70;;
11064;SDS011;5585;52.530;7.320;2022-12-08T08:34:39;3.53;;;3.17;;
11064;SDS011;5585;52.530;7.320;2022-12-08T08:37:05;4.27;;;3.10;;
11064;SDS011;5585;52.530;7.320;2022-12-08T08:39:32;3.30;;;3.00;;
11064;SDS011;5585;52.530;7.320;2022-12-08T08:41:58;5.20;;;2.80;;
11064;SDS011;5585;52.530;7.320;2022-12-08T08:44:25;3.20;;;2.70;;
11064;SDS011;5585;52.530;7.320;2022-12-08T08:46:52;3.53;;;2.90;;
11064;SDS011;5585;52.530;7.320;2022-12-08T08:49:19;3.10;;;2.73;;
11064;SDS011;5585;52.530;7.320;2022-12-08T08:51:52;3.07;;;2.77;;
11064;SDS011;5585;52.530;7.320;2022-12-08T08:54:18;3.43;;;3.07;;
11064;SDS011;5585;52.530;7.320;2022-12-08T08:56:45;2.93;;;2.67;;
11064;SDS011;5585;52.530;7.320;2022-12-08T08:59:12;3.30;;;3.00;;
11064;SDS011;5585;52.530;7.320;2022-12-08T09:01:38;2.87;;;2.60;;
11064;SDS011;5585;52.530;7.320;2022-12-08T09:04:05;4.90;;;3.30;;
11064;SDS011;5585;52.530;7.320;2022-12-08T09:06:33;3.23;;;2.90;;
11064;SDS011;5585;52.530;7.320;2022-12-08T09:08:59;3.53;;;3.17;;
11064;SDS011;5585;52.530;7.320;2022-12-08T09:11:26;4.47;;;3.13;;
11064;SDS011;5585;52.530;7.320;2022-12-08T09:13:53;3.00;;;2.77;;
11064;SDS011;5585;52.530;7.320;2022-12-08T09:16:20;3.10;;;2.80;;
11064;SDS011;5585;52.530;7.320;2022-12-08T09:18:47;3.83;;;3.20;;
11064;SDS011;5585;52.530;7.320;2022-12-08T09:21:14;4.03;;;3.20;;
11064;SDS011;5585;52.530;7.320;2022-12-08T09:23:45;4.13;;;3.73;;
11064;SDS011;5585;52.530;7.320;2022-12-08T09:26:12;4.53;;;3.57;;
11064;SDS011;5585;52.530;7.320;2022-12-08T09:28:38;3.67;;;3.37;;
11064;SDS011;5585;52.530;7.320;2022-12-08T09:31:10;4.60;;;3.47;;
11064;SDS011;5585;52.530;7.320;2022-12-08T09:33:36;4.33;;;3.47;;
11064;SDS011;5585;52.530;7.320;2022-12-08T09:36:03;3.17;;;2.87;;
11064;SDS011;5585;52.530;7.320;2022-12-08T09:38:30;4.37;;;3.97;;
11064;SDS011;5585;52.530;7.320;2022-12-08T09:40:58;4.03;;;3.63;;
11064;SDS011;5585;52.530;7.320;2022-12-08T09:43:33;4.30;;;3.90;;
11064;SDS011;5585;52.530;7.320;2022-12-08T09:46:05;4.33;;;3.57;;
11064;SDS011;5585;52.530;7.320;2022-12-08T09:48:33;5.33;;;3.77;;
11064;SDS011;5585;52.530;7.320;2022-12-08T09:51:00;4.17;;;3.77;;
11064;SDS011;5585;52.530;7.320;2022-12-08T09:53:29;4.10;;;3.43;;
11064;SDS011;5585;52.530;7.320;2022-12-08T09:55:59;4.97;;;3.87;;
11064;SDS011;5585;52.530;7.320;2022-12-08T09:58:30;5.23;;;3.80;;
11064;SDS011;5585;52.530;7.320;2022-12-08T10:00:57;3.50;;;3.20;;
11064;SDS011;5585;52.530;7.320;2022-12-08T10:03:26;4.10;;;3.70;;
11064;SDS011;5585;52.530;7.320;2022-12-08T10:05:54;3.53;;;3.23;;
11064;SDS011;5585;52.530;7.320;2022-12-08T10:08:24;3.50;;;3.20;;
11064;SDS011;5585;52.530;7.320;2022-12-08T10:10:53;4.00;;;3.53;;
11064;SDS011;5585;52.530;7.320;2022-12-08T10:13:25;3.80;;;3.50;;
11064;SDS011;5585;52.530;7.320;2022-12-08T10:15:56;3.83;;;3.50;;
11064;SDS011;5585;52.530;7.320;2022-12-08T10:18:26;3.50;;;3.20;;
11064;SDS011;5585;52.530;7.320;2022-12-08T10:20:52;4.17;;;3.77;;
11064;SDS011;5585;52.530;7.320;2022-12-08T10:23:24;3.47;;;3.17;;
11064;SDS011;5585;52.530;7.320;2022-12-08T10:25:56;3.70;;;3.40;;
11064;SDS011;5585;52.530;7.320;2022-12-08T10:28:24;3.70;;;3.30;;
11064;SDS011;5585;52.530;7.320;2022-12-08T10:30:51;4.67;;;3.73;;
11064;SDS011;5585;52.530;7.320;2022-12-08T10:33:18;4.40;;;3.80;;
11064;SDS011;5585;52.530;7.320;2022-12-08T10:35:47;4.00;;;3.30;;
11064;SDS011;5585;52.530;7.320;2022-12-08T10:38:18;3.73;;;3.33;;
11064;SDS011;5585;52.530;7.320;2022-12-08T10:40:45;4.00;;;3.60;;
11064;SDS011;5585;52.530;7.320;2022-12-08T10:43:13;3.57;;;3.27;;
11064;SDS011;5585;52.530;7.320;2022-12-08T10:45:41;3.90;;;3.53;;
11064;SDS011;5585;52.530;7.320;2022-12-08T10:48:12;3.23;;;2.93;;
11064;SDS011;5585;52.530;7.320;2022-12-08T10:50:41;3.50;;;3.20;;
11064;SDS011;5585;52.530;7.320;2022-12-08T10:53:11;3.40;;;3.10;;
11064;SDS011;5585;52.530;7.320;2022-12-08T10:55:39;3.80;;;3.00;;
11064;SDS011;5585;52.530;7.320;2022-12-08T11:00:50;3.03;;;2.73;;
11064;SDS011;5585;52.530;7.320;2022-12-08T11:03:20;3.90;;;3.30;;
11064;SDS011;5585;52.530;7.320;2022-12-08T11:05:47;3.20;;;2.90;;
11064;SDS011;5585;52.530;7.320;2022-12-08T11:08:14;5.63;;;3.30;;
11064;SDS011;5585;52.530;7.320;2022-12-08T11:10:41;3.03;;;2.80;;
11064;SDS011;5585;52.530;7.320;2022-12-08T11:13:11;3.53;;;2.73;;
11064;SDS011;5585;52.530;7.320;2022-12-08T11:15:39;3.63;;;3.20;;
11064;SDS011;5585;52.530;7.320;2022-12-08T11:18:08;3.20;;;2.90;;
11064;SDS011;5585;52.530;7.320;2022-12-08T11:20:39;4.63;;;3.70;;
11064;SDS011;5585;52.530;7.320;2022-12-08T11:23:17;4.77;;;3.37;;
11064;SDS011;5585;52.530;7.320;2022-12-08T11:25:44;3.90;;;2.70;;
11064;SDS011;5585;52.530;7.320;2022-12-08T11:28:10;3.60;;;2.93;;
11064;SDS011;5585;52.530;7.320;2022-12-08T11:30:37;2.97;;;2.70;;
11064;SDS011;5585;52.530;7.320;2022-12-08T11:33:10;3.57;;;2.80;;
11064;SDS011;5585;52.530;7.320;2022-12-08T11:35:39;3.57;;;2.70;;
11064;SDS011;5585;52.530;7.320;2022-12-08T11:38:09;3.03;;;2.30;;
11064;SDS011;5585;52.530;7.320;2022-12-08T11:40:37;4.60;;;2.40;;
11064;SDS011;5585;52.530;7.320;2022-12-08T11:43:05;3.80;;;2.77;;
11064;SDS011;5585;52.530;7.320;2022-12-08T11:45:34;2.40;;;2.20;;
11064;SDS011;5585;52.530;7.320;2022-12-08T11:48:03;3.10;;;2.10;;
11064;SDS011;5585;52.530;7.320;2022-12-08T11:50:37;4.43;;;2.93;;
11064;SDS011;5585;52.530;7.320;2022-12-08T11:53:07;6.27;;;2.30;;
11064;SDS011;5585;52.530;7.320;2022-12-08T11:55:40;3.53;;;2.10;;
11064;SDS011;5585;52.530;7.320;2022-12-08T11:58:10;2.17;;;1.40;;
11064;SDS011;5585;52.530;7.320;2022-12-08T12:00:38;2.03;;;1.60;;
11064;SDS011;5585;52.530;7.320;2022-12-08T12:03:05;1.77;;;1.67;;
11064;SDS011;5585;52.530;7.320;2022-12-08T12:05:38;1.90;;;1.60;;
11064;SDS011;5585;52.530;7.320;2022-12-08T12:08:08;3.00;;;1.63;;
11064;SDS011;5585;52.530;7.320;2022-12-08T12:10:51;2.47;;;1.50;;
11064;SDS011;5585;52.530;7.320;2022-12-08T12:13:28;1.47;;;1.37;;
11064;SDS011;5585;52.530;7.320;2022-12-08T12:16:09;2.27;;;1.53;;
11064;SDS011;5585;52.530;7.320;2022-12-08T12:18:41;1.60;;;1.50;;
11064;SDS011;5585;52.530;7.320;2022-12-08T12:21:12;3.00;;;1.47;;
11064;SDS011;5585;52.530;7.320;2022-12-08T12:23:43;1.93;;;1.50;;
11064;SDS011;5585;52.530;7.320;2022-12-08T12:26:16;3.97;;;1.60;;
11064;SDS011;5585;52.530;7.320;2022-12-08T12:28:44;2.20;;;1.70;;
11064;SDS011;5585;52.530;7.320;2022-12-08T12:31:14;1.77;;;1.50;;
11064;SDS011;5585;52.530;7.320;2022-12-08T12:33:41;1.93;;;1.63;;
11064;SDS011;5585;52.530;7.320;2022-12-08T12:36:08;2.77;;;1.53;;
11064;SDS011;5585;52.530;7.320;2022-12-08T12:38:38;4.23;;;1.60;;
11064;SDS011;5585;52.530;7.320;2022-12-08T12:41:34;3.00;;;1.80;;
11064;SDS011;5585;52.530;7.320;2022-12-08T12:44:06;2.10;;;1.47;;
11064;SDS011;5585;52.530;7.320;2022-12-08T12:46:38;2.80;;;2.00;;
11064;SDS011;5585;52.530;7.320;2022-12-08T12:51:53;2.60;;;1.90;;
11064;SDS011;5585;52.530;7.320;2022-12-08T12:54:21;2.17;;;1.90;;
11064;SDS011;5585;52.530;7.320;2022-12-08T12:56:50;2.60;;;1.80;;
11064;SDS011;5585;52.530;7.320;2022-12-08T12:59:20;3.40;;;2.23;;
11064;SDS011;5585;52.530;7.320;2022-12-08T13:01:51;3.70;;;1.83;;
11064;SDS011;5585;52.530;7.320;2022-12-08T13:04:19;2.37;;;1.60;;
11064;SDS011;5585;52.530;7.320;2022-12-08T13:06:53;2.13;;;1.73;;
11064;SDS011;5585;52.530;7.320;2022-12-08T13:09:22;2.37;;;1.77;;
11064;SDS011;5585;52.530;7.320;2022-12-08T13:11:52;2.47;;;1.50;;
11064;SDS011;5585;52.530;7.320;2022-12-08T13:14:25;1.67;;;1.30;;
11064;SDS011;5585;52.530;7.320;2022-12-08T13:16:53;2.53;;;1.77;;
11064;SDS011;5585;52.530;7.320;2022-12-08T13:19:20;2.47;;;1.70;;
11064;SDS011;5585;52.530;7.320;2022-12-08T13:21:47;2.40;;;1.50;;
11064;SDS011;5585;52.530;7.320;2022-12-08T13:24:23;1.87;;;1.50;;
11064;SDS011;5585;52.530;7.320;2022-12-08T13:27:26;2.77;;;2.00;;
11064;SDS011;5585;52.530;7.320;2022-12-08T13:29:40;2.33;;;1.90;;
11064;SDS011;5585;52.530;7.320;2022-12-08T13:34:48;3.87;;;1.97;;
11064;SDS011;5585;52.530;7.320;2022-12-08T13:37:18;4.63;;;2.57;;
11064;SDS011;5585;52.530;7.320;2022-12-08T13:39:47;8.70;;;5.70;;
11064;SDS011;5585;52.530;7.320;2022-12-08T13:42:18;7.80;;;4.30;;
11064;SDS011;5585;52.530;7.320;2022-12-08T13:44:47;5.70;;;3.97;;
11064;SDS011;5585;52.530;7.320;2022-12-08T13:47:15;4.43;;;3.40;;
11064;SDS011;5585;52.530;7.320;2022-12-08T13:49:47;4.80;;;3.60;;
11064;SDS011;5585;52.530;7.320;2022-12-08T13:52:16;3.40;;;3.10;;
11064;SDS011;5585;52.530;7.320;2022-12-08T13:54:43;3.90;;;3.50;;
11064;SDS011;5585;52.530;7.320;2022-12-08T13:57:14;5.17;;;4.67;;
11064;SDS011;5585;52.530;7.320;2022-12-08T13:59:43;6.57;;;5.20;;
11064;SDS011;5585;52.530;7.320;2022-12-08T14:02:13;8.70;;;4.67;;
11064;SDS011;5585;52.530;7.320;2022-12-08T14:04:42;5.27;;;3.93;;
11064;SDS011;5585;52.530;7.320;2022-12-08T14:07:09;7.23;;;5.27;;
11064;SDS011;5585;52.530;7.320;2022-12-08T14:09:36;6.03;;;4.20;;
11064;SDS011;5585;52.530;7.320;2022-12-08T14:12:04;4.87;;;3.47;;
11064;SDS011;5585;52.530;7.320;2022-12-08T14:14:32;4.20;;;3.30;;
11064;SDS011;5585;52.530;7.320;2022-12-08T14:17:02;4.30;;;2.87;;
11064;SDS011;5585;52.530;7.320;2022-12-08T14:19:29;3.83;;;2.70;;
11064;SDS011;5585;52.530;7.320;2022-12-08T14:21:57;3.87;;;2.47;;
11064;SDS011;5585;52.530;7.320;2022-12-08T14:24:24;3.70;;;2.90;;
11064;SDS011;5585;52.530;7.320;2022-12-08T14:26:52;3.33;;;2.50;;
11064;SDS011;5585;52.530;7.320;2022-12-08T14:32:14;2.87;;;2.67;;
11064;SDS011;5585;52.530;7.320;2022-12-08T14:34:43;2.60;;;2.40;;
11064;SDS011;5585;52.530;7.320;2022-12-08T14:37:10;3.37;;;2.60;;
11064;SDS011;5585;52.530;7.320;2022-12-08T14:39:37;4.10;;;2.60;;
11064;SDS011;5585;52.530;7.320;2022-12-08T14:42:04;3.20;;;2.53;;
11064;SDS011;5585;52.530;7.320;2022-12-08T14:44:31;2.77;;;2.47;;
11064;SDS011;5585;52.530;7.320;2022-12-08T14:47:01;3.10;;;2.80;;
11064;SDS011;5585;52.530;7.320;2022-12-08T14:49:32;3.33;;;2.60;;
11064;SDS011;5585;52.530;7.320;2022-12-08T14:51:59;3.20;;;2.57;;
11064;SDS011;5585;52.530;7.320;2022-12-08T14:54:26;3.50;;;2.67;;
11064;SDS011;5585;52.530;7.320;2022-12-08T14:56:54;3.97;;;2.50;;
11064;SDS011;5585;52.530;7.320;2022-12-08T14:59:24;4.17;;;2.93;;
11064;SDS011;5585;52.530;7.320;2022-12-08T15:01:51;3.93;;;3.10;;
11064;SDS011;5585;52.530;7.320;2022-12-08T15:04:21;2.77;;;2.37;;
11064;SDS011;5585;52.530;7.320;2022-12-08T15:06:50;3.83;;;2.93;;
11064;SDS011;5585;52.530;7.320;2022-12-08T15:09:27;2.50;;;2.30;;
11064;SDS011;5585;52.530;7.320;2022-12-08T15:11:58;2.40;;;2.20;;
11064;SDS011;5585;52.530;7.320;2022-12-08T15:14:26;2.73;;;2.40;;
11064;SDS011;5585;52.530;7.320;2022-12-08T15:16:53;2.73;;;2.30;;
11064;SDS011;5585;52.530;7.320;2022-12-08T15:19:22;3.07;;;2.40;;